MDPP/POP METAR and TAF weather

Enter ICAO airport designator
Station Type Date Time Source
MDPP METAR 2020/10/22 03:00 UTC NOAA

MDPP 220300Z 00000KT 9999 SCT016 24/22 Q1013


Station Type Date Time Source
MDPP Decoded METAR 2020/10/22 03:00 UTC NOAA

Puerto Plata International, Dominican Republic (MDPP) 19-45N 070-33W
Oct 21, 2020 - 11:00 PM EDT / 2020.10.22 0300 UTC
Wind: Calm:0
Visibility: greater than 7 mile(s):0
Sky conditions: partly cloudy
Temperature: 75 F (24 C)
Dew Point: 71 F (22 C)
Relative Humidity: 88%
Pressure (altimeter): 29.91 in. Hg (1013 hPa)
ob: MDPP 220300Z 00000KT 9999 SCT016 24/22 Q1013
cycle: 3

Station Type Date Time Source
MDPP TAF 2020/10/21 18:16 UTC NOAA

TAF MDPP 211600Z 2118/2218 06012KT 9999 SCT025 BKN300 PROB30 2118/2200 8000 -TSSH FEW017CB BKN018
BECMG 2201/2203 00000KT

Example: see airport list